createdAt,value
2023-01-12T00:00:02.789Z,2.20
2023-01-12T00:10:01.496Z,2.00
2023-01-12T00:20:01.267Z,1.60
2023-01-12T00:30:01.346Z,1.30
2023-01-12T00:40:02.749Z,1.40
2023-01-12T00:50:01.929Z,1.80
2023-01-12T01:00:01.479Z,1.10
2023-01-12T01:10:02.951Z,1.80
2023-01-12T01:20:01.023Z,2.30
2023-01-12T01:30:01.574Z,1.90
2023-01-12T01:40:00.975Z,2.00
2023-01-12T01:50:01.276Z,1.20
2023-01-12T02:00:01.027Z,1.80
2023-01-12T02:10:02.124Z,1.90
2023-01-12T02:20:03.488Z,1.70
2023-01-12T02:30:01.145Z,1.30
2023-01-12T02:40:01.021Z,1.40
2023-01-12T02:50:00.289Z,9.40
2023-01-12T03:00:01.196Z,8.40
2023-01-12T03:10:02.144Z,1.70
2023-01-12T03:20:01.067Z,1.30
2023-01-12T03:30:00.987Z,1.50
2023-01-12T03:40:01.103Z,1.60
2023-01-12T03:50:01.066Z,1.10
2023-01-12T04:00:01.069Z,2.40
2023-01-12T04:10:00.275Z,1.30
2023-01-12T04:20:01.924Z,1.50
2023-01-12T04:30:02.118Z,1.60
2023-01-12T04:50:01.055Z,2.10
2023-01-12T05:00:01.329Z,1.40
2023-01-12T05:10:01.233Z,1.30
2023-01-12T05:20:01.997Z,1.10
2023-01-12T05:30:02.328Z,1.20
2023-01-12T05:40:01.920Z,1.40
2023-01-12T05:50:01.461Z,1.30
2023-01-12T06:00:00.997Z,1.20
2023-01-12T06:10:01.219Z,2.10
2023-01-12T06:20:00.986Z,1.40
2023-01-12T06:30:01.060Z,1.30
2023-01-12T06:40:01.279Z,2.00
2023-01-12T06:50:00.277Z,4.10
2023-01-12T07:00:01.113Z,2.20
2023-01-12T07:10:01.324Z,2.10
2023-01-12T07:20:01.011Z,5.10
2023-01-12T07:30:01.524Z,11.00
2023-01-12T07:40:01.263Z,6.50
2023-01-12T07:50:02.351Z,11.80
2023-01-12T08:00:01.019Z,11.60
2023-01-12T08:10:02.125Z,7.50
2023-01-12T08:20:02.369Z,10.30
2023-01-12T08:30:01.084Z,12.50
2023-01-12T08:50:01.246Z,6.30
2023-01-12T09:10:01.009Z,4.70
2023-01-12T09:20:01.144Z,9.70
2023-01-12T09:30:01.068Z,6.50
2023-01-12T09:40:01.297Z,14.10
2023-01-12T09:50:08.973Z,12.60
2023-01-12T10:00:02.313Z,15.40
2023-01-12T10:10:00.980Z,11.70
2023-01-12T10:20:01.389Z,10.70
2023-01-12T10:30:02.166Z,13.40
2023-01-12T10:40:02.396Z,11.20
2023-01-12T10:50:01.314Z,10.70
2023-01-12T11:00:01.877Z,8.30
2023-01-12T11:10:02.116Z,8.20
2023-01-12T11:20:01.497Z,13.30
2023-01-12T11:30:02.015Z,10.90
2023-01-12T11:40:00.284Z,10.80
2023-01-12T11:50:01.376Z,5.00
2023-01-12T12:00:01.483Z,7.60
2023-01-12T12:10:01.342Z,6.80
2023-01-12T12:20:01.105Z,3.80
2023-01-12T12:30:01.029Z,9.70
2023-01-12T12:40:00.277Z,12.10
2023-01-12T12:50:02.298Z,11.30
2023-01-12T13:00:01.336Z,21.30
2023-01-12T13:10:01.085Z,13.00
2023-01-12T13:20:06.352Z,10.20
2023-01-12T13:30:01.288Z,13.40
2023-01-12T13:40:01.546Z,17.20
2023-01-12T13:50:02.695Z,12.80
2023-01-12T14:00:01.122Z,11.40
2023-01-12T14:10:01.120Z,7.90
2023-01-12T14:20:01.197Z,5.00
2023-01-12T14:30:02.631Z,5.10
2023-01-12T14:40:02.561Z,7.10
2023-01-12T14:50:01.074Z,4.90
2023-01-12T15:00:01.788Z,11.10
2023-01-12T15:10:01.164Z,5.20
2023-01-12T15:20:03.606Z,3.70
2023-01-12T15:30:01.101Z,5.80
2023-01-12T15:40:01.039Z,9.70
2023-01-12T15:50:01.918Z,10.10
2023-01-12T16:00:03.157Z,6.20
2023-01-12T16:10:02.217Z,6.20
2023-01-12T16:20:01.042Z,5.60
2023-01-12T16:30:01.686Z,5.20
2023-01-12T16:40:01.231Z,5.50
2023-01-12T16:50:00.423Z,6.90
2023-01-12T17:00:01.103Z,6.90
2023-01-12T17:10:01.124Z,6.60
2023-01-12T17:20:01.428Z,7.60
2023-01-12T17:30:02.171Z,8.00
2023-01-12T17:40:01.041Z,7.00
2023-01-12T17:50:01.043Z,7.80
2023-01-12T18:00:02.936Z,4.20
2023-01-12T18:10:01.314Z,7.60
2023-01-12T18:20:01.295Z,8.40
2023-01-12T18:30:01.109Z,7.90
2023-01-12T18:40:02.172Z,5.30
2023-01-12T18:50:01.970Z,7.50
2023-01-12T19:00:02.955Z,5.90
2023-01-12T19:10:02.103Z,6.60
2023-01-12T19:20:02.367Z,7.80
2023-01-12T19:30:01.438Z,5.30
2023-01-12T19:40:01.510Z,8.10
2023-01-12T19:50:01.103Z,7.30
2023-01-12T20:00:01.047Z,6.50
2023-01-12T20:10:01.135Z,5.00
2023-01-12T20:20:01.226Z,5.40
2023-01-12T20:30:01.582Z,11.90
2023-01-12T20:40:01.035Z,7.50
2023-01-12T20:50:03.340Z,3.00
2023-01-12T21:00:01.988Z,7.50
2023-01-12T21:10:02.224Z,5.20
2023-01-12T21:20:03.347Z,10.70
2023-01-12T21:30:03.221Z,4.80
2023-01-12T21:40:03.432Z,8.20
2023-01-12T21:50:02.983Z,7.60
2023-01-12T22:00:01.075Z,7.90
2023-01-12T22:10:01.808Z,11.40
2023-01-12T22:20:02.414Z,7.60
2023-01-12T22:30:01.572Z,9.70
2023-01-12T22:40:01.465Z,13.60
2023-01-12T22:50:00.401Z,10.50
2023-01-12T23:00:02.380Z,5.00
2023-01-12T23:20:00.334Z,5.70
2023-01-12T23:30:01.403Z,6.60
2023-01-12T23:40:01.563Z,8.20
2023-01-12T23:50:02.018Z,10.10
